| time (UTC) | temp F | wind direction | speed knots | gust knots | rain 1hr in | rain 24hr in | rain mn in | humidity % | barometer mb |
| 20260508121529 | 50 | 2 | 0.9 | 9.6 | 0.00 | 0.00 | 0.00 | 59 | 1007.1 |
| 20260508120035 | 49 | 169 | 0.9 | 6.1 | 0.00 | 0.00 | 0.00 | 67 | 1007.2 |
| 20260508114540 | 48 | 330 | 2.6 | 9.6 | 0.00 | 0.00 | 0.00 | 64 | 1007.2 |
| 20260508113044 | 47 | 245 | 0.9 | 5.2 | 0.00 | 0.00 | 0.00 | 65 | 1007.2 |
| 20260508111554 | 46 | 128 | 0.0 | 2.6 | 0.00 | 0.00 | 0.00 | 72 | 1007.2 |
| 20260508110004 | 47 | 147 | 0.0 | 1.7 | 0.00 | 0.00 | 0.00 | 70 | 1007.1 |
| 20260508104511 | 44 | 215 | 0.0 | 2.6 | 0.00 | 0.00 | 0.00 | 80 | 1006.9 |
| 20260508103035 | 40 | 71 | 0.0 | 4.3 | 0.00 | 0.00 | 0.00 | 86 | 1006.7 |
| 20260508101542 | 38 | 82 | 0.0 | 1.7 | 0.00 | 0.00 | 0.00 | 92 | 1006.4 |
| 20260508100112 | 36 | 91 | 0.0 | 0.0 | 0.00 | 0.00 | 0.00 | 92 | 1006.3 |
| 20260508094510 | 36 | 91 | 0.0 | 0.0 | 0.00 | 0.00 | 0.00 | 90 | 1006.0 |
| 20260508093023 | 36 | 91 | 0.0 | 0.0 | 0.00 | 0.00 | 0.00 | 89 | 1005.7 |
| 20260508091553 | 36 | 91 | 0.0 | 0.0 | 0.00 | 0.00 | 0.00 | 86 | 1005.6 |
| 20260508090114 | 37 | 91 | 0.0 | 0.0 | 0.00 | 0.00 | 0.00 | 89 | 1005.6 |
| 20260508084509 | 37 | 91 | 0.0 | 0.9 | 0.00 | 0.00 | 0.00 | 87 | 1005.5 |
| 20260508083008 | 37 | 91 | 0.0 | 0.9 | 0.00 | 0.00 | 0.00 | 90 | 1005.5 |
| 20260508081519 | 38 | 91 | 0.0 | 0.0 | 0.00 | 0.00 | 0.00 | 89 | 1005.4 |
| 20260508080040 | 38 | 91 | 0.0 | 0.0 | 0.00 | 0.00 | 0.00 | 85 | 1005.4 |
| 20260508074549 | 39 | 91 | 0.0 | 0.9 | 0.00 | 0.00 | 0.00 | 84 | 1005.2 |
| 20260508073113 | 39 | 91 | 0.0 | 0.9 | 0.00 | 0.00 | 0.00 | 85 | 1005.2 |
| 20260508071508 | 39 | 91 | 0.0 | 1.7 | 0.00 | 0.00 | 0.00 | 82 | 1005.1 |
| 20260508070016 | 40 | 100 | 0.0 | 0.9 | 0.00 | 0.01 | 0.00 | 84 | 1005.1 |
| 20260508064513 | 40 | 101 | 0.0 | 0.9 | 0.00 | 0.01 | 0.00 | 81 | 1005.2 |
| 20260508063037 | 40 | 11 | 0.0 | 1.7 | 0.00 | 0.01 | 0.00 | 81 | 1005.4 |
| 20260508061559 | 41 | 75 | 0.0 | 0.9 | 0.00 | 0.01 | 0.00 | 81 | 1005.2 |
| 20260508060012 | 40 | 77 | 0.0 | 1.7 | 0.00 | 0.10 | 0.00 | 79 | 1005.4 |
| 20260508054534 | 40 | 95 | 0.0 | 1.7 | 0.00 | 0.10 | 0.00 | 85 | 1005.6 |
| 20260508053046 | 40 | 70 | 0.0 | 0.9 | 0.00 | 0.10 | 0.00 | 80 | 1005.7 |
| 20260508051617 | 41 | 16 | 0.0 | 0.9 | 0.00 | 0.10 | 0.00 | 74 | 1006.0 |
| 20260508050023 | 40 | 347 | 0.0 | 0.9 | 0.00 | 0.24 | 0.00 | 84 | 1006.0 |
| 20260508044526 | 40 | 82 | 0.9 | 1.7 | 0.00 | 0.24 | 0.00 | 86 | 1006.1 |
| 20260508043042 | 39 | 72 | 0.0 | 0.9 | 0.00 | 0.24 | 0.00 | 85 | 1006.1 |
| 20260508041559 | 39 | 75 | 0.9 | 1.7 | 0.00 | 0.24 | 0.00 | 85 | 1006.2 |
| 20260508040013 | 40 | 75 | 0.0 | 0.0 | 0.00 | 0.24 | 0.24 | 85 | 1006.3 |
| 20260508034536 | 41 | 75 | 0.0 | 0.9 | 0.00 | 0.24 | 0.24 | 81 | 1006.3 |
| 20260508033044 | 41 | 75 | 0.0 | 0.9 | 0.00 | 0.24 | 0.24 | 76 | 1006.5 |
| 20260508031555 | 42 | 75 | 0.0 | 0.9 | 0.00 | 0.24 | 0.24 | 80 | 1006.3 |
| 20260508030057 | 43 | 75 | 0.0 | 0.0 | 0.00 | 0.25 | 0.24 | 80 | 1006.4 |
| 20260508024526 | 44 | 75 | 0.0 | 0.9 | 0.00 | 0.25 | 0.24 | 75 | 1006.0 |
| 20260508023026 | 44 | 75 | 0.0 | 0.9 | 0.00 | 0.25 | 0.24 | 74 | 1006.0 |
| 20260508021549 | 45 | 75 | 0.0 | 0.0 | 0.00 | 0.25 | 0.24 | 79 | 1005.9 |
| 20260508020119 | 47 | 75 | 0.0 | 0.9 | 0.00 | 0.28 | 0.24 | 73 | 1005.8 |
| 20260508014520 | 48 | 77 | 0.0 | 1.7 | 0.00 | 0.28 | 0.24 | 69 | 1005.7 |
| 20260508013033 | 49 | 11 | 0.0 | 2.6 | 0.00 | 0.28 | 0.24 | 70 | 1005.7 |
| 20260508011537 | 50 | 73 | 0.9 | 3.5 | 0.00 | 0.28 | 0.24 | 61 | 1005.6 |
| 20260508010055 | 51 | 46 | 1.7 | 5.2 | 0.00 | 0.32 | 0.24 | 59 | 1005.6 |
| 20260508004535 | 51 | 51 | 1.7 | 3.5 | 0.00 | 0.32 | 0.24 | 63 | 1005.3 |
| 20260508003031 | 52 | 55 | 1.7 | 6.1 | 0.00 | 0.32 | 0.24 | 62 | 1004.8 |
| 20260508001550 | 52 | 143 | 0.0 | 2.6 | 0.00 | 0.32 | 0.24 | 68 | 1004.6 |
| 20260508000011 | 53 | 11 | 0.0 | 3.5 | 0.00 | 0.33 | 0.24 | 64 | 1004.4 |
| 20260507234517 | 53 | 233 | 0.0 | 1.7 | 0.00 | 0.33 | 0.24 | 62 | 1004.2 |
| 20260507233024 | 54 | 75 | 0.0 | 3.5 | 0.00 | 0.33 | 0.24 | 61 | 1003.9 |
| 20260507231544 | 55 | 124 | 0.0 | 5.2 | 0.00 | 0.33 | 0.24 | 62 | 1003.7 |
| 20260507230111 | 55 | 98 | 0.9 | 5.2 | 0.00 | 0.48 | 0.24 | 59 | 1003.4 |
| 20260507224523 | 56 | 342 | 1.7 | 5.2 | 0.00 | 0.48 | 0.24 | 61 | 1003.1 |
| 20260507223038 | 56 | 301 | 1.7 | 7.0 | 0.00 | 0.48 | 0.24 | 62 | 1003.0 |
| 20260507221555 | 57 | 131 | 1.7 | 10.4 | 0.00 | 0.48 | 0.24 | 58 | 1002.8 |
| 20260507220017 | 60 | 101 | 1.7 | 7.0 | 0.00 | 0.59 | 0.24 | 57 | 1002.7 |
| 20260507214524 | 61 | 84 | 2.6 | 6.1 | 0.00 | 0.59 | 0.24 | 57 | 1002.6 |
| 20260507213042 | 60 | 103 | 0.0 | 7.8 | 0.00 | 0.59 | 0.24 | 72 | 1002.6 |
| 20260507211559 | 59 | 256 | 0.0 | 5.2 | 0.00 | 0.59 | 0.24 | 82 | 1002.5 |
| 20260507210015 | 58 | 198 | 2.6 | 5.2 | 0.00 | 0.69 | 0.24 | 82 | 1002.5 |
| 20260507204531 | 54 | 253 | 0.0 | 5.2 | 0.00 | 0.69 | 0.24 | 90 | 1002.3 |
| 20260507203114 | 53 | 124 | 2.6 | 3.5 | 0.00 | 0.69 | 0.24 | 89 | 1002.3 |
| 20260507201502 | 55 | 248 | 0.9 | 7.8 | 0.00 | 0.69 | 0.24 | 85 | 1002.4 |
| 20260507200017 | 56 | 231 | 1.7 | 3.5 | 0.00 | 0.73 | 0.24 | 84 | 1002.2 |
| 20260507194529 | 55 | 196 | 1.7 | 7.0 | 0.00 | 0.73 | 0.24 | 86 | 1002.3 |
| 20260507193043 | 56 | 203 | 5.2 | 7.8 | 0.00 | 0.73 | 0.24 | 83 | 1002.4 |
| 20260507191559 | 57 | 236 | 2.6 | 5.2 | 0.00 | 0.73 | 0.24 | 84 | 1002.4 |
| 20260507190021 | 57 | 236 | 2.6 | 5.2 | 0.00 | 0.73 | 0.24 | 82 | 1002.3 |
| 20260507184538 | 56 | 240 | 0.9 | 4.3 | 0.00 | 0.73 | 0.24 | 88 | 1002.6 |
| 20260507183052 | 55 | 232 | 2.6 | 8.7 | 0.00 | 0.73 | 0.24 | 88 | 1002.6 |
| 20260507181514 | 55 | 143 | 0.0 | 4.3 | 0.00 | 0.73 | 0.24 | 89 | 1002.9 |
| 20260507180025 | 56 | 218 | 2.6 | 7.8 | 0.00 | 0.73 | 0.24 | 83 | 1002.8 |
| 20260507174538 | 56 | 159 | 5.2 | 8.7 | 0.00 | 0.73 | 0.24 | 89 | 1003.1 |
| 20260507173110 | 55 | 206 | 2.6 | 7.8 | 0.00 | 0.73 | 0.24 | 88 | 1003.2 |
| 20260507171559 | 55 | 231 | 0.0 | 3.5 | 0.00 | 0.73 | 0.24 | 92 | 1003.3 |
| 20260507170008 | 55 | 236 | 0.9 | 5.2 | 0.00 | 0.73 | 0.24 | 87 | 1003.4 |
| 20260507164535 | 55 | 193 | 0.9 | 7.0 | 0.00 | 0.73 | 0.24 | 90 | 1003.5 |
| 20260507163047 | 54 | 260 | 0.9 | 3.5 | 0.00 | 0.73 | 0.24 | 90 | 1003.8 |
| 20260507161549 | 55 | 230 | 0.9 | 7.0 | 0.00 | 0.73 | 0.24 | 88 | 1003.9 |
| 20260507160006 | 55 | 200 | 0.9 | 5.2 | 0.00 | 0.73 | 0.24 | 93 | 1003.9 |
| 20260507154513 | 54 | 214 | 1.7 | 6.1 | 0.00 | 0.73 | 0.24 | 95 | 1004.0 |
| 20260507150100 | 53 | 83 | 2.6 | 6.1 | 0.00 | 0.73 | 0.24 | 93 | 1004.5 |
| 20260507144523 | 53 | 269 | 0.9 | 3.5 | 0.00 | 0.73 | 0.24 | 97 | 1004.5 |
| 20260507143048 | 52 | 103 | 0.0 | 3.5 | 0.00 | 0.73 | 0.24 | 96 | 1004.8 |
| 20260507141559 | 51 | 61 | 2.6 | 4.3 | 0.00 | 0.73 | 0.24 | 96 | 1004.9 |
| 20260507140015 | 50 | 86 | 0.9 | 4.3 | 0.00 | 0.73 | 0.24 | 96 | 1005.0 |
| 20260507134529 | 50 | 39 | 0.0 | 4.3 | 0.00 | 0.73 | 0.24 | 97 | 1005.0 |
| 20260507133125 | 50 | 18 | 0.9 | 5.2 | 0.00 | 0.73 | 0.24 | 98 | 1005.0 |
| 20260507131603 | 49 | 13 | 0.9 | 4.3 | 0.00 | 0.73 | 0.24 | 98 | 1005.4 |
| 20260507130014 | 49 | 53 | 0.9 | 4.3 | 0.00 | 0.73 | 0.24 | 99 | 1005.5 |
| 20260507124532 | 48 | 54 | 0.9 | 5.2 | 0.00 | 0.73 | 0.24 | 99 | 1005.3 |
| 20260507123051 | 48 | 233 | 0.9 | 7.0 | 0.00 | 0.73 | 0.24 | 99 | 1005.3 |